sensor_id;sensor_type;location;lat;lon;timestamp;pressure;altitude;pressure_sealevel;temperature;humidity
12475;BME280;6302;42.624;23.334;2023-04-16T00:01:46;92773.44;;;11.24;86.81
12475;BME280;6302;42.624;23.334;2023-04-16T00:04:13;92768.56;;;11.23;86.97
12475;BME280;6302;42.624;23.334;2023-04-16T00:06:41;92760.66;;;11.19;88.06
12475;BME280;6302;42.624;23.334;2023-04-16T00:09:09;92775.16;;;11.15;89.45
12475;BME280;6302;42.624;23.334;2023-04-16T00:11:35;92776.28;;;11.13;90.22
12475;BME280;6302;42.624;23.334;2023-04-16T00:14:02;92773.31;;;11.11;91.25
12475;BME280;6302;42.624;23.334;2023-04-16T00:16:29;92768.09;;;11.08;92.14
12475;BME280;6302;42.624;23.334;2023-04-16T00:18:56;92768.91;;;11.05;92.37
12475;BME280;6302;42.624;23.334;2023-04-16T00:21:23;92753.75;;;11.05;92.74
12475;BME280;6302;42.624;23.334;2023-04-16T00:23:50;92758.72;;;11.03;93.79
12475;BME280;6302;42.624;23.334;2023-04-16T00:26:18;92758.34;;;11.01;94.58
12475;BME280;6302;42.624;23.334;2023-04-16T00:28:45;92759.91;;;10.99;94.66
12475;BME280;6302;42.624;23.334;2023-04-16T00:31:12;92762.22;;;10.97;95.72
12475;BME280;6302;42.624;23.334;2023-04-16T00:33:39;92757.72;;;10.94;96.37
12475;BME280;6302;42.624;23.334;2023-04-16T00:36:06;92760.78;;;10.92;96.27
12475;BME280;6302;42.624;23.334;2023-04-16T00:38:33;92756.63;;;10.91;96.65
12475;BME280;6302;42.624;23.334;2023-04-16T00:40:59;92759.28;;;10.91;96.70
12475;BME280;6302;42.624;23.334;2023-04-16T00:43:27;92761.59;;;10.89;96.62
12475;BME280;6302;42.624;23.334;2023-04-16T00:45:56;92750.31;;;10.85;96.60
12475;BME280;6302;42.624;23.334;2023-04-16T00:48:23;92752.63;;;10.83;96.62
12475;BME280;6302;42.624;23.334;2023-04-16T00:50:52;92751.44;;;10.84;96.91
12475;BME280;6302;42.624;23.334;2023-04-16T00:53:20;92751.13;;;10.82;97.18
12475;BME280;6302;42.624;23.334;2023-04-16T00:55:47;92754.56;;;10.79;97.88
12475;BME280;6302;42.624;23.334;2023-04-16T00:58:14;92756.53;;;10.75;98.45
12475;BME280;6302;42.624;23.334;2023-04-16T01:00:42;92761.88;;;10.72;98.28
12475;BME280;6302;42.624;23.334;2023-04-16T01:03:09;92755.88;;;10.48;96.88
12475;BME280;6302;42.624;23.334;2023-04-16T01:05:36;92747.25;;;10.44;98.34
12475;BME280;6302;42.624;23.334;2023-04-16T01:08:03;92752.53;;;10.44;98.85
12475;BME280;6302;42.624;23.334;2023-04-16T01:10:30;92759.72;;;10.43;98.92
12475;BME280;6302;42.624;23.334;2023-04-16T01:12:56;92757.06;;;10.43;98.77
12475;BME280;6302;42.624;23.334;2023-04-16T01:15:23;92754.81;;;10.42;98.43
12475;BME280;6302;42.624;23.334;2023-04-16T01:17:51;92754.88;;;10.38;98.73
12475;BME280;6302;42.624;23.334;2023-04-16T01:20:18;92759.44;;;10.38;99.24
12475;BME280;6302;42.624;23.334;2023-04-16T01:22:46;92756.44;;;10.36;99.44
12475;BME280;6302;42.624;23.334;2023-04-16T01:25:14;92766.28;;;10.35;99.58
12475;BME280;6302;42.624;23.334;2023-04-16T01:27:41;92764.03;;;10.34;99.98
12475;BME280;6302;42.624;23.334;2023-04-16T01:30:08;92751.66;;;10.27;100.00
12475;BME280;6302;42.624;23.334;2023-04-16T01:32:35;92752.81;;;10.26;100.00
12475;BME280;6302;42.624;23.334;2023-04-16T01:35:02;92749.81;;;10.24;100.00
12475;BME280;6302;42.624;23.334;2023-04-16T01:37:29;92749.53;;;10.19;100.00
12475;BME280;6302;42.624;23.334;2023-04-16T01:39:58;92744.28;;;10.15;100.00
12475;BME280;6302;42.624;23.334;2023-04-16T01:42:25;92751.13;;;10.13;100.00
12475;BME280;6302;42.624;23.334;2023-04-16T01:44:52;92742.81;;;10.11;100.00
12475;BME280;6302;42.624;23.334;2023-04-16T01:47:20;92739.47;;;10.07;100.00
12475;BME280;6302;42.624;23.334;2023-04-16T01:49:46;92734.19;;;10.07;100.00
12475;BME280;6302;42.624;23.334;2023-04-16T01:52:13;92730.78;;;10.06;100.00
12475;BME280;6302;42.624;23.334;2023-04-16T01:54:40;92728.16;;;10.03;100.00
12475;BME280;6302;42.624;23.334;2023-04-16T01:57:08;92731.19;;;10.05;100.00
12475;BME280;6302;42.624;23.334;2023-04-16T01:59:35;92726.28;;;10.03;100.00
12475;BME280;6302;42.624;23.334;2023-04-16T02:02:06;92740.38;;;9.97;100.00
12475;BME280;6302;42.624;23.334;2023-04-16T02:04:35;92734.38;;;9.93;100.00
12475;BME280;6302;42.624;23.334;2023-04-16T02:07:02;92732.88;;;9.92;100.00
12475;BME280;6302;42.624;23.334;2023-04-16T02:09:29;92738.22;;;9.88;100.00
12475;BME280;6302;42.624;23.334;2023-04-16T02:11:56;92731.44;;;9.87;100.00
12475;BME280;6302;42.624;23.334;2023-04-16T02:14:24;92740.47;;;9.90;100.00
12475;BME280;6302;42.624;23.334;2023-04-16T02:16:51;92741.22;;;9.90;100.00
12475;BME280;6302;42.624;23.334;2023-04-16T02:19:18;92735.56;;;9.88;100.00
12475;BME280;6302;42.624;23.334;2023-04-16T02:21:44;92734.44;;;9.89;100.00
12475;BME280;6302;42.624;23.334;2023-04-16T02:24:11;92729.53;;;9.88;100.00
12475;BME280;6302;42.624;23.334;2023-04-16T02:26:38;92729.13;;;9.89;100.00
12475;BME280;6302;42.624;23.334;2023-04-16T02:29:05;92723.06;;;9.92;100.00
12475;BME280;6302;42.624;23.334;2023-04-16T02:31:33;92726.44;;;9.93;100.00
12475;BME280;6302;42.624;23.334;2023-04-16T02:34:00;92722.22;;;9.95;100.00
12475;BME280;6302;42.624;23.334;2023-04-16T02:36:27;92719.25;;;9.93;100.00
12475;BME280;6302;42.624;23.334;2023-04-16T02:38:54;92727.47;;;9.99;100.00
12475;BME280;6302;42.624;23.334;2023-04-16T02:41:21;92721.78;;;10.00;100.00
12475;BME280;6302;42.624;23.334;2023-04-16T02:43:48;92712.28;;;10.03;100.00
12475;BME280;6302;42.624;23.334;2023-04-16T02:46:14;92711.56;;;10.02;100.00
12475;BME280;6302;42.624;23.334;2023-04-16T02:48:42;92713.44;;;10.02;100.00
12475;BME280;6302;42.624;23.334;2023-04-16T02:51:09;92705.97;;;9.97;100.00
12475;BME280;6302;42.624;23.334;2023-04-16T02:53:36;92709.38;;;9.97;100.00
12475;BME280;6302;42.624;23.334;2023-04-16T02:56:03;92713.19;;;9.93;100.00
12475;BME280;6302;42.624;23.334;2023-04-16T02:58:30;92712.41;;;9.96;100.00
12475;BME280;6302;42.624;23.334;2023-04-16T03:00:57;92714.28;;;9.95;100.00
12475;BME280;6302;42.624;23.334;2023-04-16T03:03:24;92708.63;;;9.97;100.00
12475;BME280;6302;42.624;23.334;2023-04-16T03:05:52;92703.66;;;9.99;100.00
12475;BME280;6302;42.624;23.334;2023-04-16T03:08:19;92703.66;;;9.99;100.00
12475;BME280;6302;42.624;23.334;2023-04-16T03:10:46;92704.78;;;9.98;100.00
12475;BME280;6302;42.624;23.334;2023-04-16T03:13:13;92714.59;;;10.01;100.00
12475;BME280;6302;42.624;23.334;2023-04-16T03:15:39;92708.53;;;10.00;100.00
12475;BME280;6302;42.624;23.334;2023-04-16T03:18:06;92714.25;;;9.99;100.00
12475;BME280;6302;42.624;23.334;2023-04-16T03:20:33;92716.09;;;10.02;99.81
12475;BME280;6302;42.624;23.334;2023-04-16T03:23:01;92711.59;;;9.99;100.00
12475;BME280;6302;42.624;23.334;2023-04-16T03:25:28;92712.28;;;10.03;100.00
12475;BME280;6302;42.624;23.334;2023-04-16T03:27:55;92711.56;;;10.02;100.00
12475;BME280;6302;42.624;23.334;2023-04-16T03:30:21;92714.13;;;10.06;99.72
12475;BME280;6302;42.624;23.334;2023-04-16T03:32:48;92711.44;;;10.09;100.00
12475;BME280;6302;42.624;23.334;2023-04-16T03:35:16;92703.84;;;10.11;100.00
12475;BME280;6302;42.624;23.334;2023-04-16T03:37:43;92717.88;;;10.12;100.00
12475;BME280;6302;42.624;23.334;2023-04-16T03:40:12;92719.34;;;10.13;100.00
12475;BME280;6302;42.624;23.334;2023-04-16T03:42:39;92713.69;;;10.11;100.00
12475;BME280;6302;42.624;23.334;2023-04-16T03:45:06;92712.28;;;10.03;100.00
12475;BME280;6302;42.624;23.334;2023-04-16T03:47:33;92717.25;;;10.01;100.00
12475;BME280;6302;42.624;23.334;2023-04-16T03:50:00;92717.69;;;9.96;100.00
12475;BME280;6302;42.624;23.334;2023-04-16T03:52:27;92716.25;;;9.91;100.00
12475;BME280;6302;42.624;23.334;2023-04-16T03:54:54;92725.06;;;9.85;100.00
12475;BME280;6302;42.624;23.334;2023-04-16T03:57:22;92721.34;;;9.78;100.00
12475;BME280;6302;42.624;23.334;2023-04-16T03:59:49;92732.34;;;9.77;100.00
12475;BME280;6302;42.624;23.334;2023-04-16T04:02:15;92730.81;;;9.76;100.00
12475;BME280;6302;42.624;23.334;2023-04-16T04:04:42;92730.06;;;9.75;100.00
12475;BME280;6302;42.624;23.334;2023-04-16T04:07:09;92735.75;;;9.77;100.00
12475;BME280;6302;42.624;23.334;2023-04-16T04:09:36;92737.34;;;9.68;100.00
12475;BME280;6302;42.624;23.334;2023-04-16T04:12:02;92729.41;;;9.68;100.00
12475;BME280;6302;42.624;23.334;2023-04-16T04:14:31;92740.75;;;9.68;100.00
12475;BME280;6302;42.624;23.334;2023-04-16T04:16:57;92747.66;;;9.62;100.00
12475;BME280;6302;42.624;23.334;2023-04-16T04:19:24;92752.56;;;9.60;100.00
12475;BME280;6302;42.624;23.334;2023-04-16T04:21:51;92752.13;;;9.65;100.00
12475;BME280;6302;42.624;23.334;2023-04-16T04:24:18;92749.84;;;9.67;100.00
12475;BME280;6302;42.624;23.334;2023-04-16T04:26:44;92753.63;;;9.66;100.00
12475;BME280;6302;42.624;23.334;2023-04-16T04:29:12;92756.63;;;9.68;100.00
12475;BME280;6302;42.624;23.334;2023-04-16T04:31:40;92760.00;;;9.72;100.00
12475;BME280;6302;42.624;23.334;2023-04-16T04:34:07;92761.03;;;9.78;100.00
12475;BME280;6302;42.624;23.334;2023-04-16T04:36:34;92752.75;;;9.76;100.00
12475;BME280;6302;42.624;23.334;2023-04-16T04:39:01;92756.84;;;9.81;100.00
12475;BME280;6302;42.624;23.334;2023-04-16T04:41:28;92764.41;;;9.82;100.00
12475;BME280;6302;42.624;23.334;2023-04-16T04:43:55;92766.28;;;9.82;100.00
12475;BME280;6302;42.624;23.334;2023-04-16T04:46:22;92769.69;;;9.82;100.00
12475;BME280;6302;42.624;23.334;2023-04-16T04:48:50;92769.28;;;9.84;100.00
12475;BME280;6302;42.624;23.334;2023-04-16T04:51:16;92763.94;;;9.88;100.00
12475;BME280;6302;42.624;23.334;2023-04-16T04:53:43;92772.97;;;9.90;100.00
12475;BME280;6302;42.624;23.334;2023-04-16T04:56:10;92766.50;;;9.95;100.00
12475;BME280;6302;42.624;23.334;2023-04-16T04:58:37;92761.59;;;9.93;100.00
12475;BME280;6302;42.624;23.334;2023-04-16T05:01:04;92773.56;;;10.01;100.00
12475;BME280;6302;42.624;23.334;2023-04-16T05:03:31;92769.78;;;10.02;100.00
12475;BME280;6302;42.624;23.334;2023-04-16T05:05:59;92772.00;;;10.07;100.00
12475;BME280;6302;42.624;23.334;2023-04-16T05:08:26;92774.94;;;10.13;100.00
12475;BME280;6302;42.624;23.334;2023-04-16T05:10:53;92770.38;;;10.17;100.00
12475;BME280;6302;42.624;23.334;2023-04-16T05:13:19;92762.75;;;10.19;100.00
12475;BME280;6302;42.624;23.334;2023-04-16T05:15:46;92765.00;;;10.20;100.00
12475;BME280;6302;42.624;23.334;2023-04-16T05:18:13;92771.03;;;10.21;100.00
12475;BME280;6302;42.624;23.334;2023-04-16T05:20:40;92763.44;;;10.23;100.00
12475;BME280;6302;42.624;23.334;2023-04-16T05:23:08;92765.59;;;10.31;100.00
12475;BME280;6302;42.624;23.334;2023-04-16T05:25:35;92764.97;;;10.24;100.00
12475;BME280;6302;42.624;23.334;2023-04-16T05:28:02;92768.69;;;10.26;100.00
12475;BME280;6302;42.624;23.334;2023-04-16T05:30:28;92767.06;;;10.32;100.00
12475;BME280;6302;42.624;23.334;2023-04-16T05:32:55;92770.47;;;10.33;100.00
12475;BME280;6302;42.624;23.334;2023-04-16T05:35:22;92769.28;;;10.37;99.56
12475;BME280;6302;42.624;23.334;2023-04-16T05:37:49;92767.72;;;10.40;99.34
12475;BME280;6302;42.624;23.334;2023-04-16T05:40:17;92770.66;;;10.45;99.05
12475;BME280;6302;42.624;23.334;2023-04-16T05:42:44;92766.00;;;10.53;98.88
12475;BME280;6302;42.624;23.334;2023-04-16T05:45:10;92767.84;;;10.56;98.89
12475;BME280;6302;42.624;23.334;2023-04-16T05:47:37;92769.22;;;10.64;97.91
12475;BME280;6302;42.624;23.334;2023-04-16T05:50:05;92766.09;;;10.69;98.88
12475;BME280;6302;42.624;23.334;2023-04-16T05:52:32;92768.06;;;10.65;98.59
12475;BME280;6302;42.624;23.334;2023-04-16T05:54:59;92778.63;;;10.69;99.66
12475;BME280;6302;42.624;23.334;2023-04-16T05:57:27;92762.59;;;10.76;100.00
12475;BME280;6302;42.624;23.334;2023-04-16T05:59:54;92768.16;;;10.81;99.70
12475;BME280;6302;42.624;23.334;2023-04-16T06:02:21;92769.97;;;10.88;98.91
12475;BME280;6302;42.624;23.334;2023-04-16T06:04:48;92770.25;;;10.93;98.88
12475;BME280;6302;42.624;23.334;2023-04-16T06:07:15;92760.38;;;11.13;98.16
12475;BME280;6302;42.624;23.334;2023-04-16T06:09:41;92767.00;;;11.25;94.85
12475;BME280;6302;42.624;23.334;2023-04-16T06:12:08;92759.66;;;11.33;95.33
12475;BME280;6302;42.624;23.334;2023-04-16T06:14:37;92760.06;;;11.31;94.73
12475;BME280;6302;42.624;23.334;2023-04-16T06:17:03;92763.66;;;11.41;94.73
12475;BME280;6302;42.624;23.334;2023-04-16T06:19:30;92767.34;;;11.47;96.73
12475;BME280;6302;42.624;23.334;2023-04-16T06:21:57;92763.25;;;11.42;98.02
12475;BME280;6302;42.624;23.334;2023-04-16T06:24:24;92756.25;;;11.52;96.87
12475;BME280;6302;42.624;23.334;2023-04-16T06:26:50;92761.41;;;11.59;95.60
12475;BME280;6302;42.624;23.334;2023-04-16T06:29:18;92753.59;;;11.52;94.40
12475;BME280;6302;42.624;23.334;2023-04-16T06:31:47;92754.19;;;11.59;93.03
12475;BME280;6302;42.624;23.334;2023-04-16T06:34:13;92759.03;;;11.64;93.38
12475;BME280;6302;42.624;23.334;2023-04-16T06:36:40;92763.13;;;11.69;93.65
12475;BME280;6302;42.624;23.334;2023-04-16T06:39:07;92752.63;;;11.62;92.85
12475;BME280;6302;42.624;23.334;2023-04-16T06:41:34;92763.63;;;11.80;93.78
12475;BME280;6302;42.624;23.334;2023-04-16T06:44:01;92763.13;;;11.69;94.51
12475;BME280;6302;42.624;23.334;2023-04-16T06:46:27;92757.84;;;11.65;95.62
12475;BME280;6302;42.624;23.334;2023-04-16T06:48:56;92770.28;;;11.88;93.08
12475;BME280;6302;42.624;23.334;2023-04-16T06:51:24;92766.41;;;11.93;92.29
12475;BME280;6302;42.624;23.334;2023-04-16T06:53:51;92766.66;;;11.98;93.24
12475;BME280;6302;42.624;23.334;2023-04-16T06:56:18;92765.75;;;12.05;92.60
12475;BME280;6302;42.624;23.334;2023-04-16T06:58:46;92766.78;;;12.11;90.76
12475;BME280;6302;42.624;23.334;2023-04-16T07:01:13;92711.28;;;11.81;89.58
12475;BME280;6302;42.624;23.334;2023-04-16T07:03:40;92767.03;;;12.16;89.45
12475;BME280;6302;42.624;23.334;2023-04-16T07:06:09;92766.72;;;12.14;89.15
12475;BME280;6302;42.624;23.334;2023-04-16T07:08:36;92771.69;;;12.28;89.29
12475;BME280;6302;42.624;23.334;2023-04-16T07:11:02;92776.69;;;12.26;87.61
12475;BME280;6302;42.624;23.334;2023-04-16T07:13:30;92775.53;;;12.44;87.41
12475;BME280;6302;42.624;23.334;2023-04-16T07:15:57;92775.69;;;12.53;85.71
12475;BME280;6302;42.624;23.334;2023-04-16T07:18:24;92773.84;;;12.66;87.00
12475;BME280;6302;42.624;23.334;2023-04-16T07:20:51;92778.47;;;12.94;82.37
12475;BME280;6302;42.624;23.334;2023-04-16T07:23:19;92760.53;;;12.82;83.12
12475;BME280;6302;42.624;23.334;2023-04-16T07:25:46;92766.59;;;12.82;83.53
12475;BME280;6302;42.624;23.334;2023-04-16T07:28:13;92773.81;;;12.98;83.31
12475;BME280;6302;42.624;23.334;2023-04-16T07:30:42;92769.41;;;13.08;82.00
12475;BME280;6302;42.624;23.334;2023-04-16T07:33:09;92768.81;;;13.16;83.05
12475;BME280;6302;42.624;23.334;2023-04-16T07:35:36;92769.47;;;13.20;79.97
12475;BME280;6302;42.624;23.334;2023-04-16T07:38:03;92769.38;;;13.24;80.12
12475;BME280;6302;42.624;23.334;2023-04-16T07:40:40;92753.44;;;13.36;79.83
12475;BME280;6302;42.624;23.334;2023-04-16T07:43:09;92765.06;;;13.42;79.34
12475;BME280;6302;42.624;23.334;2023-04-16T07:45:37;92773.28;;;13.48;78.89
12475;BME280;6302;42.624;23.334;2023-04-16T07:48:05;92759.44;;;13.53;78.77
12475;BME280;6302;42.624;23.334;2023-04-16T07:50:31;92772.78;;;13.65;78.73
12475;BME280;6302;42.624;23.334;2023-04-16T07:52:58;92779.41;;;13.74;80.57
12475;BME280;6302;42.624;23.334;2023-04-16T07:55:25;92773.78;;;13.84;78.86
12475;BME280;6302;42.624;23.334;2023-04-16T07:57:53;92774.34;;;13.92;77.63
12475;BME280;6302;42.624;23.334;2023-04-16T08:00:20;92765.28;;;14.02;78.75
12475;BME280;6302;42.624;23.334;2023-04-16T08:02:47;92768.38;;;14.13;76.79
12475;BME280;6302;42.624;23.334;2023-04-16T08:05:14;92772.66;;;14.23;75.51
12475;BME280;6302;42.624;23.334;2023-04-16T08:07:41;92768.41;;;14.38;76.41
12475;BME280;6302;42.624;23.334;2023-04-16T08:10:08;92766.78;;;14.53;76.70
12475;BME280;6302;42.624;23.334;2023-04-16T08:12:35;92768.59;;;14.69;73.07
12475;BME280;6302;42.624;23.334;2023-04-16T08:15:03;92764.13;;;14.53;73.95
12475;BME280;6302;42.624;23.334;2023-04-16T08:17:30;92761.16;;;14.51;74.36
12475;BME280;6302;42.624;23.334;2023-04-16T08:19:58;92763.56;;;14.71;73.72
12475;BME280;6302;42.624;23.334;2023-04-16T08:22:26;92764.22;;;14.62;72.76
12475;BME280;6302;42.624;23.334;2023-04-16T08:24:53;92764.34;;;14.46;73.28
12475;BME280;6302;42.624;23.334;2023-04-16T08:27:20;92766.03;;;14.53;72.32
12475;BME280;6302;42.624;23.334;2023-04-16T08:29:46;92754.44;;;14.47;72.89
12475;BME280;6302;42.624;23.334;2023-04-16T08:32:15;92760.63;;;14.31;71.98
12475;BME280;6302;42.624;23.334;2023-04-16T08:34:42;92760.94;;;14.58;72.40
12475;BME280;6302;42.624;23.334;2023-04-16T08:37:08;92750.00;;;14.78;70.22
12475;BME280;6302;42.624;23.334;2023-04-16T08:39:35;92755.69;;;14.67;71.98
12475;BME280;6302;42.624;23.334;2023-04-16T08:42:04;92751.00;;;14.59;71.28
12475;BME280;6302;42.624;23.334;2023-04-16T08:44:33;92748.88;;;14.66;71.08
12475;BME280;6302;42.624;23.334;2023-04-16T08:47:00;92742.41;;;14.76;72.55
12475;BME280;6302;42.624;23.334;2023-04-16T08:49:28;92749.59;;;15.01;70.49
12475;BME280;6302;42.624;23.334;2023-04-16T08:51:56;92745.66;;;15.06;68.50
12475;BME280;6302;42.624;23.334;2023-04-16T08:54:30;92739.91;;;14.94;67.74
12475;BME280;6302;42.624;23.334;2023-04-16T08:57:01;92741.16;;;14.81;67.75
12475;BME280;6302;42.624;23.334;2023-04-16T08:59:31;92734.88;;;14.62;66.99
12475;BME280;6302;42.624;23.334;2023-04-16T09:01:59;92744.72;;;14.53;67.24
12475;BME280;6302;42.624;23.334;2023-04-16T09:04:28;92739.81;;;14.51;68.03
12475;BME280;6302;42.624;23.334;2023-04-16T09:06:55;92741.06;;;14.59;69.08
12475;BME280;6302;42.624;23.334;2023-04-16T09:09:24;92738.34;;;14.84;69.57
12475;BME280;6302;42.624;23.334;2023-04-16T09:11:51;92743.25;;;14.98;67.68
12475;BME280;6302;42.624;23.334;2023-04-16T09:14:19;92735.09;;;15.02;65.43
12475;BME280;6302;42.624;23.334;2023-04-16T09:16:46;92735.66;;;15.19;65.37
12475;BME280;6302;42.624;23.334;2023-04-16T09:19:13;92733.63;;;15.23;63.91
12475;BME280;6302;42.624;23.334;2023-04-16T09:21:42;92737.63;;;15.40;65.14
12475;BME280;6302;42.624;23.334;2023-04-16T09:24:11;92741.91;;;15.59;63.99
12475;BME280;6302;42.624;23.334;2023-04-16T09:26:38;92730.22;;;15.66;62.81
12475;BME280;6302;42.624;23.334;2023-04-16T09:29:04;92732.63;;;15.94;61.01
12475;BME280;6302;42.624;23.334;2023-04-16T09:31:31;92732.09;;;16.17;58.76
12475;BME280;6302;42.624;23.334;2023-04-16T09:34:02;92728.47;;;16.42;56.40
12475;BME280;6302;42.624;23.334;2023-04-16T09:36:30;92731.59;;;16.41;56.69
12475;BME280;6302;42.624;23.334;2023-04-16T09:38:59;92729.78;;;16.28;54.35
12475;BME280;6302;42.624;23.334;2023-04-16T09:41:27;92726.19;;;16.22;55.75
12475;BME280;6302;42.624;23.334;2023-04-16T09:43:55;92727.97;;;15.86;58.02
12475;BME280;6302;42.624;23.334;2023-04-16T09:46:23;92726.00;;;15.77;57.96
12475;BME280;6302;42.624;23.334;2023-04-16T09:48:50;92728.78;;;15.74;58.78
12475;BME280;6302;42.624;23.334;2023-04-16T09:51:17;92724.41;;;15.89;60.50
12475;BME280;6302;42.624;23.334;2023-04-16T09:53:44;92717.19;;;15.98;62.27
12475;BME280;6302;42.624;23.334;2023-04-16T09:56:12;92707.78;;;16.24;61.57
12475;BME280;6302;42.624;23.334;2023-04-16T09:58:39;92710.78;;;16.36;59.44
12475;BME280;6302;42.624;23.334;2023-04-16T10:01:09;92707.78;;;16.24;57.85
12475;BME280;6302;42.624;23.334;2023-04-16T10:03:37;92713.13;;;16.24;56.62
12475;BME280;6302;42.624;23.334;2023-04-16T10:06:12;92708.03;;;16.17;57.94
12475;BME280;6302;42.624;23.334;2023-04-16T10:08:42;92708.78;;;16.18;56.00
12475;BME280;6302;42.624;23.334;2023-04-16T10:11:09;92705.09;;;16.24;54.94
12475;BME280;6302;42.624;23.334;2023-04-16T10:13:37;92708.25;;;16.32;54.88
12475;BME280;6302;42.624;23.334;2023-04-16T10:16:05;92695.50;;;16.45;55.43
12475;BME280;6302;42.624;23.334;2023-04-16T10:18:33;92698.22;;;16.54;55.37
12475;BME280;6302;42.624;23.334;2023-04-16T10:21:03;92692.91;;;16.72;54.63
12475;BME280;6302;42.624;23.334;2023-04-16T10:23:29;92693.38;;;16.71;53.46
12475;BME280;6302;42.624;23.334;2023-04-16T10:25:57;92686.81;;;16.72;53.83
12475;BME280;6302;42.624;23.334;2023-04-16T10:28:24;92681.16;;;16.79;54.14
12475;BME280;6302;42.624;23.334;2023-04-16T10:30:56;92667.81;;;16.88;53.78
12475;BME280;6302;42.624;23.334;2023-04-16T10:33:25;92674.19;;;16.90;54.01
12475;BME280;6302;42.624;23.334;2023-04-16T10:36:06;92672.69;;;16.89;51.48
12475;BME280;6302;42.624;23.334;2023-04-16T10:38:33;92673.47;;;16.81;53.52
12475;BME280;6302;42.624;23.334;2023-04-16T10:41:02;92685.03;;;16.87;53.07
12475;BME280;6302;42.624;23.334;2023-04-16T10:43:31;92677.00;;;16.87;52.81
12475;BME280;6302;42.624;23.334;2023-04-16T10:46:16;92678.19;;;17.04;52.61
12475;BME280;6302;42.624;23.334;2023-04-16T10:48:43;92677.00;;;17.23;52.50
12475;BME280;6302;42.624;23.334;2023-04-16T10:51:23;92680.69;;;17.53;50.26
12475;BME280;6302;42.624;23.334;2023-04-16T10:53:50;92680.84;;;17.59;50.34
12475;BME280;6302;42.624;23.334;2023-04-16T10:56:22;92674.88;;;17.64;51.89
12475;BME280;6302;42.624;23.334;2023-04-16T10:58:49;92676.97;;;17.60;49.42
12475;BME280;6302;42.624;23.334;2023-04-16T11:01:17;92673.41;;;17.63;51.29
12475;BME280;6302;42.624;23.334;2023-04-16T11:03:46;92674.47;;;17.29;51.60
12475;BME280;6302;42.624;23.334;2023-04-16T11:06:14;92670.31;;;17.19;51.42
12475;BME280;6302;42.624;23.334;2023-04-16T11:08:43;92666.72;;;17.31;51.16
12475;BME280;6302;42.624;23.334;2023-04-16T11:11:11;92658.09;;;17.36;51.21
12475;BME280;6302;42.624;23.334;2023-04-16T11:13:42;92664.78;;;17.31;52.18
12475;BME280;6302;42.624;23.334;2023-04-16T11:16:10;92664.50;;;17.29;51.65
12475;BME280;6302;42.624;23.334;2023-04-16T11:18:39;92655.41;;;17.45;52.38
12475;BME280;6302;42.624;23.334;2023-04-16T11:21:07;92659.13;;;17.47;51.17
12475;BME280;6302;42.624;23.334;2023-04-16T11:23:45;92661.63;;;17.51;51.07
12475;BME280;6302;42.624;23.334;2023-04-16T11:26:20;92654.94;;;17.55;52.08
12475;BME280;6302;42.624;23.334;2023-04-16T11:28:47;92651.03;;;17.66;51.51
12475;BME280;6302;42.624;23.334;2023-04-16T11:31:14;92643.00;;;17.66;53.40
12475;BME280;6302;42.624;23.334;2023-04-16T11:33:42;92642.88;;;17.69;54.08
12475;BME280;6302;42.624;23.334;2023-04-16T11:36:09;92639.38;;;17.87;52.63
12475;BME280;6302;42.624;23.334;2023-04-16T11:38:37;92628.00;;;18.01;53.92
12475;BME280;6302;42.624;23.334;2023-04-16T11:41:05;92633.91;;;18.14;53.49
12475;BME280;6302;42.624;23.334;2023-04-16T11:43:33;92635.03;;;18.22;53.00
12475;BME280;6302;42.624;23.334;2023-04-16T11:46:00;92632.75;;;18.30;53.57
12475;BME280;6302;42.624;23.334;2023-04-16T11:48:48;92624.66;;;18.39;53.89
12475;BME280;6302;42.624;23.334;2023-04-16T11:51:15;92622.41;;;18.46;60.09
12475;BME280;6302;42.624;23.334;2023-04-16T11:53:46;92629.09;;;18.51;66.99
12475;BME280;6302;42.624;23.334;2023-04-16T11:56:13;92622.97;;;18.50;71.49
12475;BME280;6302;42.624;23.334;2023-04-16T11:58:40;92614.28;;;18.55;69.38
12475;BME280;6302;42.624;23.334;2023-04-16T12:01:07;92612.91;;;18.60;69.16
12475;BME280;6302;42.624;23.334;2023-04-16T12:03:39;92607.47;;;18.69;64.38
12475;BME280;6302;42.624;23.334;2023-04-16T12:06:10;92600.66;;;18.82;60.58
12475;BME280;6302;42.624;23.334;2023-04-16T12:08:37;92594.94;;;18.90;58.71
12475;BME280;6302;42.624;23.334;2023-04-16T12:11:03;92592.91;;;18.99;59.70
12475;BME280;6302;42.624;23.334;2023-04-16T12:13:30;92592.91;;;19.14;57.86
12475;BME280;6302;42.624;23.334;2023-04-16T12:16:15;92580.88;;;19.24;55.26
12475;BME280;6302;42.624;23.334;2023-04-16T12:18:59;92582.47;;;19.16;48.61
12475;BME280;6302;42.624;23.334;2023-04-16T12:21:40;92584.28;;;18.80;49.38
12475;BME280;6302;42.624;23.334;2023-04-16T12:24:08;92584.72;;;18.79;52.68
12475;BME280;6302;42.624;23.334;2023-04-16T12:26:45;92583.69;;;18.38;54.28
12475;BME280;6302;42.624;23.334;2023-04-16T12:29:14;92588.81;;;18.27;55.11
12475;BME280;6302;42.624;23.334;2023-04-16T12:31:41;92581.28;;;18.16;57.89
12475;BME280;6302;42.624;23.334;2023-04-16T12:34:08;92576.91;;;18.04;57.79
12475;BME280;6302;42.624;23.334;2023-04-16T12:36:35;92582.91;;;17.90;57.93
12475;BME280;6302;42.624;23.334;2023-04-16T12:39:04;92572.19;;;17.90;61.93
12475;BME280;6302;42.624;23.334;2023-04-16T12:41:31;92575.63;;;17.91;64.55
12475;BME280;6302;42.624;23.334;2023-04-16T12:44:03;92567.91;;;17.84;65.81
12475;BME280;6302;42.624;23.334;2023-04-16T12:46:31;92573.28;;;17.84;67.31
12475;BME280;6302;42.624;23.334;2023-04-16T12:48:58;92567.63;;;17.82;66.81
12475;BME280;6302;42.624;23.334;2023-04-16T12:51:25;92563.16;;;17.79;65.70
12475;BME280;6302;42.624;23.334;2023-04-16T12:53:53;92563.63;;;17.77;65.61
12475;BME280;6302;42.624;23.334;2023-04-16T12:56:21;92560.97;;;17.68;65.95
12475;BME280;6302;42.624;23.334;2023-04-16T12:58:48;92556.69;;;17.62;62.00
12475;BME280;6302;42.624;23.334;2023-04-16T13:01:17;92552.53;;;17.51;63.30
12475;BME280;6302;42.624;23.334;2023-04-16T13:03:44;92548.25;;;17.45;62.63